Terminal Aerodrome Forecast
Issued by NWS

Home | Current Version | Previous Version | Text Only | Print | Product List | Glossary On
Versions: 1 2 3 4 5 6 7 8 9 10 11 12 13 14 15 16 17 18 19 20 21 22 23 24 25 26 27 28 29 30 31 32 33 34 35 36 37 38 39 40 41 42 43 44 45 46 47 48 49 50
558
FTUS41 KPBZ 201850 AAA
TAFLBE
TAF AMD
KLBE 201850Z 2019/2118 19011G17KT P6SM BKN040
     FM210000 23005KT P6SM VCTS BKN040CB
     FM211000 25006KT P6SM VCTS SCT035CB BKN100
     FM211600 24006KT P6SM -SHRA VCTS BKN040CB=

USA.gov is the U.S. government's official web portal to all federal, state and local government web resources and services.